Time;durP1;ratioP1;P1;durP2;ratioP2;P2;SDS_P1;SDS_P2;PMS_P1;PMS_P2;Temp;Humidity;BMP_temperature;BMP_pressure;BME280_temperature;BME280_humidity;BME280_pressure;Samples;Min_cycle;Max_cycle;Signal;HPM_P1;HPM_P2
2023/07/10 04:02:10;;;;;;;4.60;4.20;;;19.80;99.90;;;;;;5192798;22;20533;-71
2023/07/10 04:04:36;;;;;;;6.23;3.70;;;19.80;99.90;;;;;;4991826;28;20967;-68
2023/07/10 04:07:03;;;;;;;3.53;3.33;;;19.80;99.90;;;;;;4992469;28;20547;-68
2023/07/10 04:09:30;;;;;;;3.70;3.50;;;19.90;99.90;;;;;;4992263;28;20467;-68
2023/07/10 04:11:57;;;;;;;3.67;3.47;;;19.90;99.90;;;;;;4991687;28;20487;-70
2023/07/10 04:14:23;;;;;;;3.37;3.27;;;19.90;99.90;;;;;;4992045;28;20493;-70
2023/07/10 04:16:52;;;;;;;3.60;3.50;;;19.90;99.90;;;;;;4991906;28;20467;-69
2023/07/10 04:19:20;;;;;;;4.50;4.20;;;19.90;99.90;;;;;;4992166;28;20514;-71
2023/07/10 04:21:47;;;;;;;4.00;3.80;;;19.90;99.90;;;;;;4991542;28;20514;-70
2023/07/10 04:24:14;;;;;;;3.30;3.00;;;19.90;99.90;;;;;;4991393;28;20498;-70
2023/07/10 04:26:40;;;;;;;3.97;3.67;;;19.90;99.90;;;;;;4991229;28;20470;-70
2023/07/10 04:29:08;;;;;;;4.43;4.07;;;19.90;99.90;;;;;;4991472;28;20504;-70
2023/07/10 04:31:35;;;;;;;3.83;3.63;;;19.90;99.90;;;;;;4990819;28;20487;-70
2023/07/10 04:34:02;;;;;;;3.53;3.23;;;19.90;99.90;;;;;;4991382;28;20946;-69
2023/07/10 04:36:30;;;;;;;5.07;4.83;;;20.00;99.90;;;;;;4991481;28;20463;-69
2023/07/10 04:38:56;;;;;;;3.87;3.57;;;19.90;99.90;;;;;;4991546;28;20462;-70
2023/07/10 04:41:24;;;;;;;4.77;4.60;;;20.00;99.90;;;;;;4990996;28;20494;-69
2023/07/10 04:43:51;;;;;;;3.97;3.77;;;19.90;99.90;;;;;;4986300;28;20497;-69
2023/07/10 04:46:19;;;;;;;3.30;3.20;;;19.90;99.90;;;;;;4991053;28;20459;-70
2023/07/10 04:48:46;;;;;;;4.40;4.10;;;19.90;99.90;;;;;;4991730;28;20476;-69
2023/07/10 04:51:14;;;;;;;9.93;4.53;;;19.90;99.90;;;;;;4991377;28;21011;-70
2023/07/10 04:53:42;;;;;;;6.23;4.70;;;19.90;99.90;;;;;;4991991;28;20908;-70
2023/07/10 04:56:12;;;;;;;5.00;4.60;;;19.90;99.90;;;;;;4991113;28;20467;-70
2023/07/10 04:58:48;;;;;;;3.80;3.60;;;19.90;99.90;;;;;;4992365;28;20490;-70
2023/07/10 05:01:15;;;;;;;4.30;4.10;;;19.90;99.90;;;;;;4991114;28;20494;-69
2023/07/10 05:03:42;;;;;;;5.07;4.67;;;19.90;99.90;;;;;;4991310;28;20497;-70
2023/07/10 05:06:08;;;;;;;4.40;4.10;;;19.90;99.90;;;;;;4991069;28;20478;-68
2023/07/10 05:08:35;;;;;;;4.60;4.30;;;19.90;99.90;;;;;;4991248;28;20947;-70
2023/07/10 05:11:03;;;;;;;6.03;5.43;;;19.90;99.90;;;;;;4990780;28;20493;-70
2023/07/10 05:13:30;;;;;;;5.27;4.77;;;19.90;99.90;;;;;;4991433;28;20515;-70
2023/07/10 05:15:59;;;;;;;5.40;5.10;;;20.00;99.90;;;;;;4990423;28;20458;-70
2023/07/10 05:18:27;;;;;;;5.40;5.03;;;20.10;99.90;;;;;;4991396;28;20466;-70
2023/07/10 05:20:54;;;;;;;6.17;5.77;;;20.10;99.90;;;;;;4990892;28;20489;-70
2023/07/10 05:23:24;;;;;;;5.03;4.63;;;20.30;99.90;;;;;;4991118;28;20952;-69
2023/07/10 05:26:03;;;;;;;4.50;4.30;;;20.40;99.90;;;;;;4991189;28;20695;-70
2023/07/10 05:28:31;;;;;;;6.00;5.60;;;20.40;99.90;;;;;;4991423;28;20463;-70
2023/07/10 05:30:59;;;;;;;4.97;4.67;;;20.50;99.90;;;;;;4991698;28;20490;-69
2023/07/10 05:33:26;;;;;;;6.90;6.30;;;20.50;99.90;;;;;;4992754;28;20477;-70
2023/07/10 05:35:54;;;;;;;5.33;4.83;;;20.60;99.90;;;;;;4991811;28;20466;-70
2023/07/10 05:38:23;;;;;;;5.20;4.90;;;20.50;99.90;;;;;;4992247;28;20522;-69
2023/07/10 05:40:50;;;;;;;4.17;3.97;;;20.50;99.90;;;;;;4990884;28;20486;-70
2023/07/10 05:43:18;;;;;;;5.40;5.00;;;20.50;99.90;;;;;;4996486;28;20469;-70
2023/07/10 05:45:45;;;;;;;5.00;4.50;;;20.50;99.90;;;;;;5010320;28;20469;-70
2023/07/10 05:48:12;;;;;;;7.20;5.40;;;20.60;99.90;;;;;;5010179;28;20461;-70
2023/07/10 05:50:38;;;;;;;5.53;5.03;;;20.70;99.90;;;;;;5010350;28;20509;-70
2023/07/10 05:53:06;;;;;;;5.40;5.00;;;20.90;99.90;;;;;;5010788;28;20461;-70
2023/07/10 05:55:32;;;;;;;5.50;5.20;;;21.00;99.90;;;;;;5014327;28;20457;-69
2023/07/10 05:57:59;;;;;;;6.57;6.20;;;21.00;99.90;;;;;;5015025;28;20982;-70
2023/07/10 06:00:27;;;;;;;8.87;4.80;;;21.10;99.90;;;;;;5014951;28;20469;-69
2023/07/10 06:02:54;;;;;;;5.63;5.17;;;21.00;99.90;;;;;;5013615;28;20466;-70
2023/07/10 06:05:20;;;;;;;5.67;5.27;;;21.20;99.90;;;;;;5014626;28;20495;-70
2023/07/10 06:07:47;;;;;;;5.20;4.90;;;21.40;99.90;;;;;;5017456;28;20489;-70
2023/07/10 06:10:14;;;;;;;5.20;4.70;;;21.50;99.90;;;;;;5015630;28;20470;-69
2023/07/10 06:12:41;;;;;;;6.40;5.80;;;21.60;99.90;;;;;;5014436;28;20472;-70
2023/07/10 06:15:09;;;;;;;5.40;4.90;;;21.70;99.90;;;;;;5014476;28;20860;-70
2023/07/10 06:17:37;;;;;;;5.87;5.57;;;21.80;99.90;;;;;;5013338;28;20530;-70
2023/07/10 06:20:04;;;;;;;5.27;4.97;;;22.10;99.90;;;;;;5014280;28;20464;-70
2023/07/10 06:22:31;;;;;;;5.53;5.17;;;22.20;99.90;;;;;;5013824;28;20565;-70
2023/07/10 06:24:58;;;;;;;5.00;4.53;;;22.30;99.90;;;;;;5013980;28;20497;-70
2023/07/10 06:27:24;;;;;;;5.07;4.77;;;22.40;99.90;;;;;;5013166;28;20483;-70
2023/07/10 06:29:51;;;;;;;4.63;4.43;;;22.70;99.90;;;;;;5013943;28;20818;-70
2023/07/10 06:32:18;;;;;;;4.60;4.40;;;23.10;99.90;;;;;;5013580;28;20484;-72
2023/07/10 06:34:46;;;;;;;4.73;4.50;;;23.50;99.90;;;;;;5013777;28;20468;-70
2023/07/10 06:37:13;;;;;;;4.77;4.47;;;23.40;99.90;;;;;;5014107;28;20491;-70
2023/07/10 06:39:40;;;;;;;4.43;4.13;;;23.20;99.90;;;;;;5014119;28;20464;-71
2023/07/10 06:42:07;;;;;;;5.30;5.00;;;23.10;99.90;;;;;;5012810;28;20490;-71
2023/07/10 06:44:33;;;;;;;4.27;4.07;;;22.90;99.90;;;;;;5007227;28;20490;-70
2023/07/10 06:47:00;;;;;;;4.13;3.93;;;22.90;99.90;;;;;;4993926;28;20477;-70
2023/07/10 06:49:27;;;;;;;4.67;4.37;;;22.90;99.90;;;;;;4993896;28;20952;-69
2023/07/10 06:51:55;;;;;;;4.73;4.40;;;22.90;99.90;;;;;;4993801;28;20484;-70
2023/07/10 06:54:22;;;;;;;4.87;4.50;;;22.90;99.90;;;;;;4993751;28;20482;-70
2023/07/10 06:56:49;;;;;;;4.50;4.10;;;23.00;99.90;;;;;;4993251;28;20465;-71
2023/07/10 06:59:16;;;;;;;5.40;5.00;;;23.00;99.90;;;;;;4993523;28;20788;-70
2023/07/10 07:01:43;;;;;;;5.93;5.43;;;23.20;99.90;;;;;;4992884;28;20895;-70
2023/07/10 07:04:10;;;;;;;5.27;4.97;;;23.40;99.90;;;;;;4993671;28;20496;-70
2023/07/10 07:06:37;;;;;;;5.57;5.17;;;23.80;99.90;;;;;;4992303;28;20477;-70
2023/07/10 07:09:05;;;;;;;4.67;4.47;;;24.10;99.90;;;;;;4993808;28;20466;-69
2023/07/10 07:11:31;;;;;;;7.13;4.00;;;24.10;99.90;;;;;;4992828;28;21060;-70
2023/07/10 07:13:58;;;;;;;4.33;4.10;;;24.10;99.90;;;;;;4993138;28;20471;-70
2023/07/10 07:16:26;;;;;;;4.00;3.80;;;24.00;99.90;;;;;;4992945;28;20475;-70
2023/07/10 07:18:52;;;;;;;4.80;4.50;;;23.90;99.90;;;;;;4993456;28;20477;-70
2023/07/10 07:21:19;;;;;;;4.80;4.50;;;23.80;99.90;;;;;;4993225;28;20496;-70
2023/07/10 07:23:46;;;;;;;4.23;3.83;;;23.80;99.90;;;;;;4993203;28;20492;-68
2023/07/10 07:26:14;;;;;;;5.13;4.83;;;23.80;99.90;;;;;;4992414;28;20819;-72
2023/07/10 07:28:41;;;;;;;6.73;6.17;;;23.80;99.90;;;;;;4993505;28;20476;-71
2023/07/10 07:31:07;;;;;;;5.03;4.73;;;23.80;99.90;;;;;;4992651;28;20488;-71
2023/07/10 07:33:34;;;;;;;4.70;4.30;;;23.60;99.90;;;;;;4993188;28;20469;-71
2023/07/10 07:36:01;;;;;;;5.03;4.63;;;23.50;99.90;;;;;;4992684;28;20465;-72
2023/07/10 07:38:28;;;;;;;5.63;5.20;;;23.40;99.90;;;;;;4992704;28;20469;-71
2023/07/10 07:40:58;;;;;;;5.20;4.90;;;23.20;99.90;;;;;;4992402;28;20567;-71
2023/07/10 07:43:26;;;;;;;4.97;4.60;;;23.10;99.90;;;;;;5000410;28;20501;-72
2023/07/10 07:45:55;;;;;;;5.00;4.80;;;23.00;99.90;;;;;;4992550;28;20844;-71
2023/07/10 07:48:22;;;;;;;6.23;5.73;;;23.00;99.90;;;;;;4993277;28;20466;-71
2023/07/10 07:50:59;;;;;;;5.10;4.90;;;23.00;99.90;;;;;;4992742;28;20498;-70
2023/07/10 07:53:27;;;;;;;6.37;5.97;;;22.90;99.90;;;;;;4992275;28;20481;-71
2023/07/10 07:55:53;;;;;;;9.40;6.80;;;22.60;99.90;;;;;;4992292;28;20480;-70
2023/07/10 07:58:20;;;;;;;6.70;6.20;;;22.40;99.90;;;;;;4992524;28;20472;-71
2023/07/10 08:00:49;;;;;;;5.63;5.23;;;22.10;99.90;;;;;;4992996;28;20500;-71
2023/07/10 08:03:16;;;;;;;7.80;7.10;;;22.00;99.90;;;;;;4992591;28;20471;-71
2023/07/10 08:05:43;;;;;;;6.43;5.93;;;21.90;99.90;;;;;;4992296;28;20488;-71
2023/07/10 08:08:11;;;;;;;5.00;4.60;;;21.90;99.90;;;;;;4992293;28;20463;-71
2023/07/10 08:10:41;;;;;;;6.00;5.40;;;21.90;99.90;;;;;;4992645;28;20546;-71
2023/07/10 08:13:09;;;;;;;6.67;6.13;;;21.90;99.90;;;;;;4992063;28;20513;-71
2023/07/10 08:15:36;;;;;;;7.70;6.87;;;21.80;99.90;;;;;;4992305;28;20984;-71
2023/07/10 08:18:04;;;;;;;6.23;5.63;;;21.80;99.90;;;;;;4991252;28;20467;-71
2023/07/10 08:20:31;;;;;;;7.00;5.77;;;21.80;99.90;;;;;;4992134;28;20494;-71
2023/07/10 08:22:58;;;;;;;6.00;5.43;;;21.90;99.90;;;;;;4992361;28;20833;-71
2023/07/10 08:25:25;;;;;;;6.10;5.57;;;22.00;99.90;;;;;;4992155;28;20519;-72
2023/07/10 08:27:51;;;;;;;5.53;5.20;;;22.10;99.90;;;;;;4991335;28;20493;-70
2023/07/10 08:30:18;;;;;;;4.30;3.93;;;22.20;99.90;;;;;;4992023;28;20476;-71
2023/07/10 08:32:45;;;;;;;3.53;3.33;;;22.20;99.90;;;;;;4991016;28;20470;-70
2023/07/10 08:35:13;;;;;;;3.57;3.37;;;22.20;99.90;;;;;;4991821;28;20508;-71
2023/07/10 08:37:40;;;;;;;4.00;3.60;;;22.10;99.90;;;;;;4991364;28;20787;-71
2023/07/10 08:40:14;;;;;;;3.47;3.37;;;22.20;99.90;;;;;;4992042;28;20898;-71
2023/07/10 08:42:41;;;;;;;4.70;3.83;;;22.20;99.90;;;;;;4993338;28;20476;-71
2023/07/10 08:45:13;;;;;;;2.80;2.70;;;22.30;99.90;;;;;;5011021;28;20484;-71
2023/07/10 08:47:45;;;;;;;2.40;2.30;;;22.50;99.90;;;;;;5010873;28;20536;-71
2023/07/10 08:50:19;;;;;;;2.27;2.27;;;22.60;99.90;;;;;;5011293;28;20477;-71
2023/07/10 08:52:53;;;;;;;2.70;2.60;;;22.70;99.90;;;;;;5011028;28;20470;-72
2023/07/10 08:55:37;;;;;;;3.00;2.90;;;22.60;99.90;;;;;;5011455;28;20480;-71
2023/07/10 08:58:05;;;;;;;3.63;3.43;;;22.60;99.90;;;;;;5010464;28;20466;-71
2023/07/10 09:00:40;;;;;;;3.43;3.13;;;22.60;99.90;;;;;;5011222;28;20877;-72
2023/07/10 09:03:34;;;;;;;2.97;2.87;;;22.60;99.90;;;;;;5010689;28;20465;-70
2023/07/10 09:06:04;;;;;;;2.93;2.90;;;22.50;99.90;;;;;;5010729;28;20488;-70
2023/07/10 09:08:33;;;;;;;2.70;2.60;;;22.50;99.90;;;;;;5011505;28;20476;-70
2023/07/10 09:11:03;;;;;;;3.00;2.80;;;22.50;99.90;;;;;;5010934;28;20493;-71
2023/07/10 09:13:39;;;;;;;3.60;3.50;;;22.60;99.90;;;;;;5011734;28;20970;-71
2023/07/10 09:16:13;;;;;;;3.50;3.30;;;22.50;99.90;;;;;;5010271;28;20468;-71
2023/07/10 09:18:46;;;;;;;3.70;3.50;;;22.40;99.90;;;;;;5010966;28;20471;-70
2023/07/10 09:21:16;;;;;;;3.03;2.83;;;22.40;99.90;;;;;;5010712;28;20563;-70
2023/07/10 09:23:44;;;;;;;3.30;3.03;;;22.30;99.90;;;;;;5011031;28;20479;-70
2023/07/10 09:26:13;;;;;;;3.17;3.07;;;22.20;99.90;;;;;;5010212;28;20499;-70
2023/07/10 09:28:40;;;;;;;3.53;3.27;;;22.10;99.90;;;;;;5009961;28;20469;-70
2023/07/10 09:31:18;;;;;;;3.00;2.90;;;22.10;99.90;;;;;;5010174;28;20505;-70
2023/07/10 09:33:52;;;;;;;3.37;3.20;;;22.20;99.90;;;;;;5010727;28;20468;-70
2023/07/10 09:36:22;;;;;;;2.87;2.77;;;22.30;99.90;;;;;;5010681;28;20495;-70
2023/07/10 09:38:51;;;;;;;2.87;2.87;;;22.50;99.90;;;;;;5010596;28;20808;-70
2023/07/10 09:41:22;;;;;;;4.33;3.23;;;22.70;99.90;;;;;;5010125;28;20906;-70
2023/07/10 09:43:51;;;;;;;3.93;3.63;;;22.70;99.90;;;;;;5005596;28;20469;-70
2023/07/10 09:46:18;;;;;;;3.47;3.37;;;22.80;99.90;;;;;;4994761;28;20486;-69
2023/07/10 09:48:47;;;;;;;3.20;3.10;;;23.00;99.90;;;;;;4990934;28;20473;-69
2023/07/10 09:51:14;;;;;;;2.90;2.80;;;23.30;99.90;;;;;;4990777;28;20486;-69
2023/07/10 09:53:45;;;;;;;3.67;3.37;;;23.40;99.90;;;;;;4990832;28;20463;-69
2023/07/10 09:56:20;;;;;;;3.30;3.10;;;23.40;99.90;;;;;;4990046;28;20467;-69
2023/07/10 09:58:47;;;;;;;3.20;3.10;;;23.40;99.90;;;;;;4990965;28;20489;-69
2023/07/10 10:01:14;;;;;;;2.77;2.60;;;23.40;99.90;;;;;;4990401;28;20502;-69
2023/07/10 10:03:42;;;;;;;2.20;2.20;;;23.70;99.90;;;;;;4991117;28;20471;-70
2023/07/10 10:06:20;;;;;;;2.83;2.50;;;23.90;99.90;;;;;;4991296;28;20535;-69
2023/07/10 10:08:50;;;;;;;2.77;2.50;;;23.90;99.90;;;;;;4990787;28;20494;-69
2023/07/10 10:11:18;;;;;;;2.30;2.10;;;24.00;99.90;;;;;;4990303;28;20964;-69
2023/07/10 10:13:47;;;;;;;1.80;1.80;;;24.10;99.90;;;;;;4991867;28;20468;-70
2023/07/10 10:18:45;;;;;;;2.03;2.03;;;24.00;99.90;;;;;;5007662;28;20501;-70
2023/07/10 10:21:14;;;;;;;1.83;1.83;;;24.00;99.90;;;;;;5009925;28;20570;-69
2023/07/10 10:23:44;;;;;;;1.70;1.70;;;24.10;99.90;;;;;;5009994;28;20476;-70
2023/07/10 10:26:30;;;;;;;1.73;1.50;;;24.30;99.90;;;;;;5009076;28;20926;-69
2023/07/10 10:29:20;;;;;;;1.40;1.40;;;24.40;99.90;;;;;;4990357;28;20527;-69
2023/07/10 10:31:53;;;;;;;1.53;1.53;;;24.70;99.90;;;;;;4989736;28;20899;-70
2023/07/10 10:34:31;;;;;;;2.37;2.27;;;24.70;99.90;;;;;;4990414;28;20472;-69
2023/07/10 10:37:12;;;;;;;1.30;1.30;;;24.70;99.90;;;;;;4990600;28;20491;-71
2023/07/10 10:39:46;;;;;;;1.30;1.30;;;24.70;99.90;;;;;;4990755;28;21068;-71
2023/07/10 10:42:23;;;;;;;2.30;2.20;;;24.70;99.90;;;;;;4992057;28;20475;-68
2023/07/10 10:44:56;;;;;;;1.87;1.50;;;24.90;99.90;;;;;;4985988;28;20477;-70
2023/07/10 10:47:32;;;;;;;1.43;1.43;;;25.00;99.90;;;;;;4993258;28;20869;-70
2023/07/10 10:50:15;;;;;;;1.70;1.70;;;24.90;99.90;;;;;;4994221;28;20461;-69
2023/07/10 10:52:53;;;;;;;1.00;1.00;;;24.80;99.90;;;;;;4994481;28;20460;-68
2023/07/10 10:55:31;;;;;;;1.50;1.40;;;24.90;99.90;;;;;;4993425;28;20468;-70
2023/07/10 10:58:19;;;;;;;0.90;0.90;;;25.10;99.90;;;;;;4993747;28;20490;-70
2023/07/10 11:01:15;;;;;;;1.00;1.00;;;25.40;99.90;;;;;;4993746;28;20489;-68
2023/07/10 11:03:45;;;;;;;3.80;1.33;;;25.70;99.90;;;;;;4993722;28;20477;-70
2023/07/10 11:06:45;;;;;;;0.80;0.80;;;25.90;99.90;;;;;;4993494;28;20487;-70
2023/07/10 11:09:17;;;;;;;1.00;1.00;;;25.90;99.90;;;;;;4979273;28;20467;-69
2023/07/10 11:11:44;;;;;;;2.87;1.17;;;25.80;99.90;;;;;;4993578;28;20463;-70
2023/07/10 11:14:13;;;;;;;0.80;0.80;;;25.80;99.90;;;;;;4993022;28;20462;-69
2023/07/10 11:16:41;;;;;;;0.93;0.93;;;25.80;99.90;;;;;;4992152;28;20521;-70
2023/07/10 11:19:15;;;;;;;1.10;1.10;;;25.80;99.90;;;;;;4992771;28;20473;-69
2023/07/10 11:21:42;;;;;;;0.67;0.67;;;25.70;99.90;;;;;;4992521;28;20465;-69
2023/07/10 11:24:27;;;;;;;1.17;1.17;;;25.70;99.90;;;;;;4992576;28;20815;-70
2023/07/10 11:26:58;;;;;;;0.80;0.80;;;25.60;99.90;;;;;;4992101;28;20490;-69
2023/07/10 11:29:31;;;;;;;0.97;0.97;;;25.60;99.90;;;;;;4992940;28;20466;-69
2023/07/10 11:32:00;;;;;;;0.90;0.90;;;25.70;99.90;;;;;;4992147;28;20462;-68
2023/07/10 11:34:49;;;;;;;1.13;1.13;;;25.90;99.90;;;;;;4992424;28;20472;-69
2023/07/10 11:37:39;;;;;;;1.13;1.13;;;26.00;99.90;;;;;;4992694;28;20871;-69
2023/07/10 11:40:43;;;;;;;1.10;1.10;;;25.90;99.90;;;;;;4992869;28;20983;-69
2023/07/10 11:43:56;;;;;;;1.40;1.40;;;25.80;99.90;;;;;;4991829;28;20970;-69
2023/07/10 11:46:34;;;;;;;0.90;0.90;;;25.90;99.90;;;;;;4991652;28;20545;-70
2023/07/10 11:49:28;;;;;;;1.40;1.30;;;25.90;99.90;;;;;;4992242;28;20466;-70
2023/07/10 11:52:26;;;;;;;1.07;1.07;;;25.80;99.90;;;;;;4946124;28;20831;-70
2023/07/10 11:55:14;;;;;;;1.30;1.20;;;25.80;99.90;;;;;;4992070;28;20463;-70
2023/07/10 11:57:41;;;;;;;1.63;1.53;;;25.80;99.90;;;;;;4991722;28;20537;-68
2023/07/10 12:00:24;;;;;;;1.00;1.00;;;25.80;99.90;;;;;;4992218;28;20793;-69
2023/07/10 12:02:54;;;;;;;1.10;1.00;;;25.90;99.90;;;;;;4991309;28;20467;-70
2023/07/10 12:05:23;;;;;;;0.90;0.90;;;25.90;99.90;;;;;;4991536;28;20841;-70
2023/07/10 12:07:51;;;;;;;0.57;0.57;;;25.90;99.90;;;;;;4991894;28;20578;-72
2023/07/10 12:10:18;;;;;;;0.70;0.70;;;26.00;99.90;;;;;;4992214;28;20470;-70
2023/07/10 12:12:45;;;;;;;1.60;1.50;;;25.80;99.90;;;;;;4991668;28;20478;-70
2023/07/10 12:15:12;;;;;;;1.83;0.90;;;25.70;99.90;;;;;;4992245;28;20467;-72
2023/07/10 12:17:40;;;;;;;1.00;1.00;;;25.50;99.90;;;;;;4991761;28;20493;-69
2023/07/10 12:20:21;;;;;;;1.40;1.30;;;25.50;99.90;;;;;;4992422;28;20942;-69
2023/07/10 12:22:48;;;;;;;1.03;1.03;;;25.70;99.90;;;;;;4991761;28;20553;-69
2023/07/10 12:25:18;;;;;;;1.17;1.17;;;25.90;99.90;;;;;;4991402;28;20466;-70
2023/07/10 12:27:45;;;;;;;1.20;1.20;;;25.90;99.90;;;;;;4991124;28;20476;-71
2023/07/10 12:30:18;;;;;;;1.67;1.67;;;25.80;99.90;;;;;;4991678;28;20463;-68
2023/07/10 12:32:46;;;;;;;1.03;1.03;;;25.70;99.90;;;;;;4990706;28;20466;-69
2023/07/10 12:35:18;;;;;;;1.40;1.40;;;25.70;99.90;;;;;;4991044;28;20993;-69
2023/07/10 12:37:48;;;;;;;2.00;1.20;;;25.90;99.90;;;;;;4992330;28;20486;-70
2023/07/10 12:40:17;;;;;;;1.33;1.33;;;26.00;99.90;;;;;;4991330;28;20474;-70
2023/07/10 12:42:46;;;;;;;1.97;1.70;;;26.00;99.90;;;;;;4990869;28;20466;-68
2023/07/10 12:45:27;;;;;;;0.90;0.90;;;25.90;99.90;;;;;;4991832;28;20477;-69
2023/07/10 12:48:00;;;;;;;1.10;1.10;;;25.70;99.90;;;;;;4992109;28;20477;-71
2023/07/10 12:50:41;;;;;;;0.83;0.83;;;25.70;99.90;;;;;;4991313;28;20481;-68
2023/07/10 12:53:17;;;;;;;1.80;1.80;;;25.70;99.90;;;;;;4990693;28;20482;-68
2023/07/10 12:55:44;;;;;;;1.00;1.00;;;25.70;99.90;;;;;;4991001;28;20458;-69
2023/07/10 12:58:14;;;;;;;1.00;1.00;;;25.60;99.90;;;;;;4990258;28;20479;-68
2023/07/10 13:00:43;;;;;;;1.20;1.20;;;25.60;99.90;;;;;;4990956;28;20478;-69
2023/07/10 13:03:24;;;;;;;1.43;1.43;;;25.60;99.90;;;;;;4989613;28;20465;-67
2023/07/10 13:05:58;;;;;;;0.97;0.97;;;25.60;99.90;;;;;;4990097;28;20490;-68
2023/07/10 13:08:32;;;;;;;1.10;1.10;;;25.80;99.90;;;;;;4990771;28;20581;-68
2023/07/10 13:11:00;;;;;;;1.00;1.00;;;26.00;99.90;;;;;;4990211;28;20502;-68
2023/07/10 13:13:32;;;;;;;1.00;1.00;;;26.00;99.90;;;;;;4990828;28;20498;-68
2023/07/10 13:16:00;;;;;;;0.93;0.93;;;26.00;99.90;;;;;;4989910;28;20462;-68
2023/07/10 13:18:31;;;;;;;1.57;1.53;;;26.10;99.90;;;;;;4990578;28;20526;-68
2023/07/10 13:20:59;;;;;;;2.73;1.10;;;26.00;99.90;;;;;;4990760;28;20470;-68
2023/07/10 13:23:26;;;;;;;1.83;1.30;;;26.20;99.90;;;;;;4990981;28;20480;-69
2023/07/10 13:25:55;;;;;;;1.30;1.30;;;26.20;99.90;;;;;;4990064;28;20952;-69
2023/07/10 13:28:24;;;;;;;1.03;1.03;;;26.30;99.90;;;;;;4990760;28;20482;-69
2023/07/10 13:30:51;;;;;;;1.20;1.20;;;26.50;99.90;;;;;;4990333;28;20547;-69
2023/07/10 13:33:20;;;;;;;1.10;1.00;;;26.60;99.90;;;;;;4990820;28;20469;-69
2023/07/10 13:35:49;;;;;;;1.90;1.80;;;26.60;99.90;;;;;;4991356;28;20467;-69
2023/07/10 13:38:17;;;;;;;1.50;1.50;;;26.10;99.90;;;;;;4990966;28;20494;-70
2023/07/10 13:40:44;;;;;;;1.93;1.93;;;25.90;99.90;;;;;;4990651;28;20474;-70
2023/07/10 13:43:13;;;;;;;1.13;1.10;;;25.80;99.90;;;;;;4988865;28;20490;-68
2023/07/10 13:45:40;;;;;;;1.07;1.07;;;25.80;99.90;;;;;;4990382;28;20467;-69
2023/07/10 13:48:12;;;;;;;0.97;0.97;;;25.70;99.90;;;;;;4990152;28;20501;-68
2023/07/10 13:50:39;;;;;;;1.10;1.10;;;25.60;99.90;;;;;;4990801;28;20474;-69
2023/07/10 13:53:06;;;;;;;1.43;0.90;;;25.70;99.90;;;;;;4990662;28;20469;-69
2023/07/10 13:55:35;;;;;;;0.87;0.87;;;25.80;99.90;;;;;;4990524;28;20843;-69
2023/07/10 13:58:02;;;;;;;1.10;1.10;;;26.00;99.90;;;;;;4989750;28;20961;-69
2023/07/10 14:00:29;;;;;;;1.37;1.37;;;26.00;99.90;;;;;;4990658;28;20469;-69
2023/07/10 14:02:57;;;;;;;0.80;0.80;;;26.00;99.90;;;;;;4990353;28;20527;-68
2023/07/10 14:05:24;;;;;;;1.00;1.00;;;25.80;99.90;;;;;;4990498;28;20473;-68
2023/07/10 14:07:51;;;;;;;0.90;0.90;;;25.70;99.90;;;;;;4990226;28;20498;-69
2023/07/10 14:10:21;;;;;;;1.33;1.33;;;25.50;99.90;;;;;;4990636;28;20466;-69
2023/07/10 14:12:50;;;;;;;1.37;1.37;;;25.50;99.90;;;;;;4990162;28;20474;-70
2023/07/10 14:15:18;;;;;;;2.33;0.90;;;25.50;99.90;;;;;;4991947;28;20565;-70
2023/07/10 14:17:45;;;;;;;1.00;1.00;;;25.40;99.90;;;;;;4993665;28;20494;-70
2023/07/10 14:20:17;;;;;;;0.77;0.77;;;25.40;99.90;;;;;;4994501;28;20772;-70
2023/07/10 14:22:43;;;;;;;0.90;0.90;;;25.40;99.90;;;;;;4993787;28;20857;-70
2023/07/10 14:25:14;;;;;;;1.00;1.00;;;25.50;99.90;;;;;;4993495;28;20481;-69
2023/07/10 14:27:41;;;;;;;1.47;1.37;;;25.50;99.90;;;;;;4993326;28;20497;-69
2023/07/10 14:30:18;;;;;;;1.30;1.30;;;25.80;99.90;;;;;;4993877;28;20463;-69
2023/07/10 14:32:45;;;;;;;1.53;1.53;;;26.00;99.90;;;;;;4993392;28;20564;-69
2023/07/10 14:35:18;;;;;;;0.80;0.80;;;26.00;99.90;;;;;;4993743;28;20481;-69
2023/07/10 14:37:44;;;;;;;2.30;1.10;;;26.00;99.90;;;;;;4994289;28;20916;-69
2023/07/10 14:40:14;;;;;;;1.27;1.23;;;25.80;99.90;;;;;;4993981;28;20488;-69
2023/07/10 14:42:41;;;;;;;0.70;0.70;;;25.70;99.90;;;;;;4993389;28;20485;-69
2023/07/10 14:45:15;;;;;;;0.80;0.80;;;25.90;99.90;;;;;;4993199;28;20479;-70
2023/07/10 14:47:44;;;;;;;1.23;0.97;;;25.80;99.90;;;;;;4992518;28;20495;-68
2023/07/10 14:50:12;;;;;;;1.20;1.20;;;26.00;99.90;;;;;;4993467;28;20525;-69
2023/07/10 14:52:41;;;;;;;1.03;1.00;;;26.00;99.90;;;;;;4993173;28;20991;-69
2023/07/10 14:55:15;;;;;;;0.70;0.70;;;25.90;99.90;;;;;;4993256;28;20473;-69
2023/07/10 14:57:42;;;;;;;0.80;0.80;;;25.80;99.90;;;;;;4992722;28;20476;-69
2023/07/10 15:00:19;;;;;;;0.70;0.70;;;25.90;99.90;;;;;;4993633;28;20793;-69
2023/07/10 15:02:46;;;;;;;1.00;1.00;;;25.90;99.90;;;;;;4993217;28;20476;-68
2023/07/10 15:05:13;;;;;;;0.80;0.80;;;26.10;99.90;;;;;;4994205;28;20470;-68
2023/07/10 15:07:40;;;;;;;0.60;0.60;;;26.40;99.90;;;;;;4993295;28;20501;-68
2023/07/10 15:10:21;;;;;;;1.17;1.17;;;26.50;99.90;;;;;;4993760;28;20953;-68
2023/07/10 15:12:49;;;;;;;0.60;0.60;;;26.60;99.90;;;;;;4992618;28;20480;-68
2023/07/10 15:15:18;;;;;;;1.60;0.90;;;26.70;99.90;;;;;;4993081;28;20482;-68
2023/07/10 15:17:47;;;;;;;1.10;0.80;;;26.80;99.90;;;;;;4992126;28;20490;-68
2023/07/10 15:20:16;;;;;;;0.97;0.87;;;27.00;99.90;;;;;;4992903;28;20489;-69
2023/07/10 15:22:43;;;;;;;1.03;0.63;;;27.00;99.90;;;;;;4992558;28;20565;-69
2023/07/10 15:25:16;;;;;;;1.43;1.00;;;27.10;99.90;;;;;;4992415;28;20467;-69
2023/07/10 15:27:43;;;;;;;3.10;0.93;;;27.20;99.90;;;;;;4990683;28;20494;-69
2023/07/10 15:30:11;;;;;;;0.60;0.60;;;27.20;99.90;;;;;;4992543;28;20477;-69
2023/07/10 15:32:43;;;;;;;0.50;0.50;;;27.30;99.90;;;;;;4992089;28;20470;-69
2023/07/10 15:35:11;;;;;;;1.50;0.73;;;27.30;99.90;;;;;;4992573;28;20798;-69
2023/07/10 15:37:38;;;;;;;0.93;0.93;;;27.30;99.90;;;;;;4992016;28;21150;-69
2023/07/10 15:40:15;;;;;;;0.80;0.77;;;27.10;99.90;;;;;;4992254;28;20470;-69
2023/07/10 15:42:42;;;;;;;0.67;0.67;;;26.90;99.90;;;;;;4992522;28;20463;-70
2023/07/10 15:45:14;;;;;;;0.60;0.60;;;26.90;99.90;;;;;;4992588;28;20459;-69
2023/07/10 15:47:43;;;;;;;0.50;0.50;;;26.90;99.90;;;;;;4992193;28;20560;-69
2023/07/10 15:50:12;;;;;;;1.80;0.40;;;27.00;99.90;;;;;;4992120;28;20474;-69
2023/07/10 15:52:41;;;;;;;0.30;0.30;;;27.00;99.90;;;;;;4991872;28;20471;-69
2023/07/10 15:55:17;;;;;;;0.30;0.30;;;27.00;99.90;;;;;;4992494;28;20858;-69
2023/07/10 15:57:44;;;;;;;0.60;0.60;;;27.00;99.90;;;;;;4991873;28;20482;-69
2023/07/10 16:00:15;;;;;;;0.40;0.40;;;26.80;99.90;;;;;;4992572;28;20478;-69
2023/07/10 16:02:45;;;;;;;1.07;0.57;;;26.90;99.90;;;;;;4992076;28;20505;-69
2023/07/10 16:05:20;;;;;;;0.57;0.57;;;26.70;99.90;;;;;;4992433;28;20450;-69
2023/07/10 16:07:47;;;;;;;0.70;0.70;;;26.60;99.90;;;;;;4991799;28;20506;-69
2023/07/10 16:10:15;;;;;;;0.90;0.60;;;26.40;99.90;;;;;;4991989;28;20477;-69
2023/07/10 16:12:42;;;;;;;0.70;0.70;;;26.20;99.90;;;;;;4991444;28;20469;-69
2023/07/10 16:15:14;;;;;;;0.97;0.87;;;26.00;99.90;;;;;;4991791;28;20465;-69
2023/07/10 16:17:44;;;;;;;0.47;0.47;;;25.80;99.90;;;;;;4990964;28;20499;-69
2023/07/10 16:20:15;;;;;;;0.60;0.60;;;25.70;99.90;;;;;;5027151;22;20616;-70
2023/07/10 16:22:43;;;;;;;0.30;0.30;;;25.60;99.90;;;;;;4991528;28;20469;-69
2023/07/10 16:25:14;;;;;;;0.40;0.40;;;25.50;99.90;;;;;;4991679;28;20477;-68
2023/07/10 16:27:42;;;;;;;0.60;0.60;;;25.50;99.90;;;;;;4990755;28;20492;-69
2023/07/10 16:30:15;;;;;;;0.70;0.70;;;25.50;99.90;;;;;;4991392;28;20497;-70
2023/07/10 16:32:43;;;;;;;0.67;0.67;;;25.60;99.90;;;;;;4990854;28;20468;-70
2023/07/10 16:35:15;;;;;;;2.73;0.80;;;25.50;99.90;;;;;;4991691;28;20463;-68
2023/07/10 16:37:42;;;;;;;1.60;0.53;;;25.40;99.90;;;;;;4990968;28;20464;-68
2023/07/10 16:40:15;;;;;;;0.90;0.90;;;25.40;99.90;;;;;;4991077;28;20509;-70
2023/07/10 16:42:42;;;;;;;0.77;0.50;;;25.30;99.90;;;;;;4990597;28;20531;-70
2023/07/10 16:45:17;;;;;;;1.27;0.60;;;25.20;99.90;;;;;;4999343;28;20465;-66
2023/07/10 16:47:46;;;;;;;0.77;0.77;;;25.20;99.90;;;;;;5010240;28;20491;-67
2023/07/10 16:50:16;;;;;;;0.40;0.40;;;25.00;99.90;;;;;;5010826;28;20483;-67
2023/07/10 16:52:44;;;;;;;0.53;0.53;;;25.00;99.90;;;;;;5010328;28;20467;-70
2023/07/10 16:55:19;;;;;;;0.50;0.50;;;25.00;99.90;;;;;;5010194;28;20471;-66
2023/07/10 16:57:48;;;;;;;0.87;0.60;;;24.90;99.90;;;;;;5010015;28;20475;-68
2023/07/10 17:00:16;;;;;;;1.23;1.00;;;24.80;99.90;;;;;;5010637;28;20499;-67
2023/07/10 17:02:46;;;;;;;0.37;0.37;;;24.80;99.90;;;;;;5009984;28;20481;-66
2023/07/10 17:05:14;;;;;;;0.60;0.60;;;24.70;99.90;;;;;;5010288;28;20539;-68
2023/07/10 17:07:43;;;;;;;0.40;0.40;;;24.70;99.90;;;;;;5009831;28;21015;-67